Time;durP1;ratioP1;P1;durP2;ratioP2;P2;SDS_P1;SDS_P2;PMS_P1;PMS_P2;Temp;Humidity;BMP_temperature;BMP_pressure;BME280_temperature;BME280_humidity;BME280_pressure;Samples;Min_cycle;Max_cycle;Signal;HPM_P1;HPM_P2
2022/01/26 00:06:42;;;;;;;;;;;4.80;99.90;;;;;;5095344;28;20430;-78
2022/01/26 00:09:07;;;;;;;;;;;4.70;99.90;;;;;;5094972;28;19947;-78
2022/01/26 00:11:34;;;;;;;;;;;4.70;99.90;;;;;;5095210;28;19958;-77
2022/01/26 00:14:01;;;;;;;;;;;4.60;99.90;;;;;;5088134;28;19925;-78
2022/01/26 00:16:36;;;;;;;;;;;4.70;99.90;;;;;;5074581;28;20010;-78
2022/01/26 00:19:03;;;;;;;;;;;4.60;99.90;;;;;;5074835;28;19908;-78
2022/01/26 00:24:12;;;;;;;;;;;4.50;99.90;;;;;;5074756;28;19918;-78
2022/01/26 00:27:06;;;;;;;;;;;4.50;99.90;;;;;;5074448;28;19915;-78
2022/01/26 00:29:25;;;;;;;;;;;4.60;99.90;;;;;;5073645;28;19909;-77
2022/01/26 00:40:03;;;;;;;;;;;4.60;99.90;;;;;;5074093;28;19915;-77
2022/01/26 00:42:35;;;;;;;;;;;4.60;99.90;;;;;;5056024;28;20141;-78
2022/01/26 00:45:00;;;;;;;;;;;4.50;99.90;;;;;;5074541;28;19916;-78
2022/01/26 00:47:26;;;;;;;;;;;4.50;99.90;;;;;;5074170;28;19963;-78
2022/01/26 00:49:57;;;;;;;;;;;4.40;99.90;;;;;;5056095;28;20373;-77
2022/01/26 00:52:36;;;;;;;;;;;4.40;99.90;;;;;;5055769;28;19909;-78
2022/01/26 00:55:02;;;;;;;;;;;4.50;99.90;;;;;;5055610;28;19967;-78
2022/01/26 00:57:28;;;;;;;;;;;4.50;99.90;;;;;;5073928;28;19908;-78
2022/01/26 00:59:53;;;;;;;;;;;4.50;99.90;;;;;;5073881;28;20406;-78
2022/01/26 01:02:19;;;;;;;;;;;4.50;99.90;;;;;;5073839;28;19913;-78
2022/01/26 01:04:44;;;;;;;;;;;4.50;99.90;;;;;;5074042;28;20304;-78
2022/01/26 01:07:16;;;;;;;;;;;4.60;99.90;;;;;;5073766;28;19908;-78
2022/01/26 01:09:42;;;;;;;;;;;4.70;99.90;;;;;;5073883;28;19962;-78
2022/01/26 01:12:08;;;;;;;;;;;4.70;99.90;;;;;;5073684;28;19908;-77
2022/01/26 01:14:37;;;;;;;;;;;4.50;99.90;;;;;;5073418;28;19920;-78
2022/01/26 01:17:04;;;;;;;;;;;4.40;99.90;;;;;;5074043;28;19955;-77
2022/01/26 01:20:06;;;;;;;;;;;4.30;99.90;;;;;;5073759;28;19917;-78
2022/01/26 01:22:35;;;;;;;;;;;4.30;99.90;;;;;;5070947;28;19974;-78
2022/01/26 01:32:52;;;;;;;;;;;4.30;99.90;;;;;;5073247;28;20012;-78
2022/01/26 01:35:18;;;;;;;;;;;4.60;99.90;;;;;;5055166;28;19913;-78
2022/01/26 01:37:44;;;;;;;;;;;4.60;99.90;;;;;;5073604;28;19915;-78
2022/01/26 01:40:10;;;;;;;;;;;4.70;99.90;;;;;;5073457;28;19912;-78
2022/01/26 01:42:35;;;;;;;;;;;4.60;99.90;;;;;;5055410;28;20006;-78
2022/01/26 01:45:01;;;;;;;;;;;4.60;99.90;;;;;;5073392;28;19991;-78
2022/01/26 01:47:27;;;;;;;;;;;4.60;99.90;;;;;;5073913;28;19912;-78
2022/01/26 01:49:53;;;;;;;;;;;4.50;99.90;;;;;;5073403;28;20364;-78
2022/01/26 01:52:19;;;;;;;;;;;4.50;99.90;;;;;;5073528;28;19909;-79
2022/01/26 01:54:50;;;;;;;;;;;4.50;99.90;;;;;;5073247;28;20281;-78
2022/01/26 01:57:22;;;;;;;;;;;4.70;99.90;;;;;;5055062;28;19916;-78
2022/01/26 01:59:47;;;;;;;;;;;4.60;99.90;;;;;;5073412;28;20270;-78
2022/01/26 02:02:13;;;;;;;;;;;4.60;99.90;;;;;;5073367;28;19916;-78
2022/01/26 02:04:38;;;;;;;;;;;4.60;99.90;;;;;;5073194;28;19909;-77
2022/01/26 02:07:04;;;;;;;;;;;4.50;99.90;;;;;;5073670;28;19977;-78
2022/01/26 02:09:30;;;;;;;;;;;4.50;99.90;;;;;;5073305;28;19917;-78
2022/01/26 02:11:57;;;;;;;;;;;4.40;99.90;;;;;;5055117;28;19908;-78
2022/01/26 02:14:31;;;;;;;;;;;4.40;99.90;;;;;;5064637;28;19972;-78
2022/01/26 03:05:04;;;;;;;;;;;4.10;99.90;;;;;;5095978;28;19908;-78
2022/01/26 03:07:41;;;;;;;;;;;4.20;99.90;;;;;;5096209;28;20418;-78
2022/01/26 03:10:55;;;;;;;;;;;4.10;99.90;;;;;;5077772;28;19912;-77
2022/01/26 03:12:59;;;;;;;;;;;4.10;99.90;;;;;;5084983;28;20343;-78
2022/01/26 03:15:31;;;;;;;;;;;4.00;99.90;;;;;;5077203;28;19970;-77
2022/01/26 03:20:33;;;;;;;;;;;4.00;99.90;;;;;;5075860;28;19908;-78
2022/01/26 03:28:41;;;;;;;;;;;4.20;99.90;;;;;;5075436;28;19915;-78
2022/01/26 03:34:10;;;;;;;;;;;4.30;99.90;;;;;;5075982;28;19909;-78
2022/01/26 03:36:46;;;;;;;;;;;4.20;99.90;;;;;;5075626;28;19916;-78
2022/01/26 03:39:14;;;;;;;;;;;4.10;99.90;;;;;;5057168;28;19912;-78
2022/01/26 03:41:49;;;;;;;;;;;4.20;99.90;;;;;;5075362;28;19912;-78
2022/01/26 03:44:15;;;;;;;;;;;4.40;99.90;;;;;;5075451;28;19909;-77
2022/01/26 03:46:41;;;;;;;;;;;4.30;99.90;;;;;;5056929;28;19932;-78
2022/01/26 03:49:07;;;;;;;;;;;4.10;99.90;;;;;;5075225;28;19908;-77
2022/01/26 03:51:33;;;;;;;;;;;4.10;99.90;;;;;;5057145;28;19958;-78
2022/01/26 03:53:59;;;;;;;;;;;4.00;99.90;;;;;;5074991;28;20333;-78
2022/01/26 03:56:25;;;;;;;;;;;3.80;99.90;;;;;;5057013;28;19913;-77
2022/01/26 03:58:50;;;;;;;;;;;3.70;99.90;;;;;;5057137;28;19913;-78
2022/01/26 04:01:16;;;;;;;;;;;3.80;99.90;;;;;;5074946;28;19912;-77
2022/01/26 04:03:42;;;;;;;;;;;3.80;99.90;;;;;;5074895;28;19934;-78
2022/01/26 04:06:07;;;;;;;;;;;3.70;99.90;;;;;;5074850;28;20046;-78
2022/01/26 04:08:34;;;;;;;;;;;3.60;99.90;;;;;;5056947;28;19951;-78
2022/01/26 04:13:44;;;;;;;;;;;3.50;99.90;;;;;;5074537;28;19965;-78
2022/01/26 04:16:10;;;;;;;;;;;3.50;99.90;;;;;;5074571;28;19999;-78
2022/01/26 04:18:39;;;;;;;;;;;3.50;99.90;;;;;;5074749;28;19931;-78
2022/01/26 04:21:15;;;;;;;;;;;3.50;99.90;;;;;;5074493;28;20373;-77
2022/01/26 04:23:49;;;;;;;;;;;3.60;99.90;;;;;;5074802;28;19919;-78
2022/01/26 04:26:18;;;;;;;;;;;3.60;99.90;;;;;;5075025;28;20348;-78
2022/01/26 04:28:51;;;;;;;;;;;3.50;99.90;;;;;;5056525;28;19909;-78
2022/01/26 04:31:19;;;;;;;;;;;3.60;99.90;;;;;;5056262;28;19909;-78
2022/01/26 04:33:45;;;;;;;;;;;3.60;99.90;;;;;;5074293;28;19912;-78
2022/01/26 04:36:15;;;;;;;;;;;3.50;99.90;;;;;;5074187;28;19912;-78
2022/01/26 04:38:46;;;;;;;;;;;3.50;99.90;;;;;;5074220;28;19908;-78
2022/01/26 04:43:43;;;;;;;;;;;3.50;99.90;;;;;;5074096;28;20340;-77
2022/01/26 04:46:09;;;;;;;;;;;3.50;99.90;;;;;;5074060;28;19909;-78
2022/01/26 04:48:34;;;;;;;;;;;3.40;99.90;;;;;;5056118;28;19916;-78
2022/01/26 04:51:00;;;;;;;;;;;3.50;99.90;;;;;;5056064;28;19932;-78
2022/01/26 04:53:26;;;;;;;;;;;3.40;99.90;;;;;;5073899;28;19948;-78
2022/01/26 04:55:52;;;;;;;;;;;3.30;99.90;;;;;;5073864;28;20277;-78
2022/01/26 04:58:18;;;;;;;;;;;3.30;99.90;;;;;;5073381;28;20470;-77
2022/01/26 05:00:44;;;;;;;;;;;3.30;99.90;;;;;;5055924;28;20357;-78
2022/01/26 05:03:10;;;;;;;;;;;3.20;99.90;;;;;;5073836;28;19935;-78
2022/01/26 05:05:35;;;;;;;;;;;3.30;99.90;;;;;;5073771;28;20280;-78
2022/01/26 05:08:01;;;;;;;;;;;3.30;99.90;;;;;;5073781;28;19995;-78
2022/01/26 05:10:28;;;;;;;;;;;3.20;99.90;;;;;;5073730;28;20280;-78
2022/01/26 05:12:54;;;;;;;;;;;3.20;99.90;;;;;;5055655;28;19951;-78
2022/01/26 05:15:22;;;;;;;;;;;3.20;99.90;;;;;;5073245;28;20349;-77
2022/01/26 05:17:50;;;;;;;;;;;3.10;99.90;;;;;;5072598;28;20205;-78
2022/01/26 05:20:16;;;;;;;;;;;3.10;99.90;;;;;;5073616;28;19940;-78
2022/01/26 05:22:44;;;;;;;;;;;3.10;99.90;;;;;;5073663;28;19935;-78
2022/01/26 05:25:10;;;;;;;;;;;3.10;99.90;;;;;;5073948;28;19915;-78
2022/01/26 05:27:35;;;;;;;;;;;3.20;99.90;;;;;;5073536;28;19908;-78
2022/01/26 05:30:01;;;;;;;;;;;3.20;99.90;;;;;;5073524;28;20264;-78
2022/01/26 05:32:27;;;;;;;;;;;3.20;99.90;;;;;;5073568;28;19977;-78
2022/01/26 05:34:53;;;;;;;;;;;3.10;99.90;;;;;;5055375;28;19920;-78
2022/01/26 05:37:18;;;;;;;;;;;3.10;99.90;;;;;;5073656;28;19958;-78
2022/01/26 05:39:44;;;;;;;;;;;3.10;99.90;;;;;;5055484;28;19915;-78
2022/01/26 05:42:10;;;;;;;;;;;3.00;99.90;;;;;;5073452;28;19913;-78
2022/01/26 05:44:35;;;;;;;;;;;3.10;99.90;;;;;;5073375;28;20038;-78
2022/01/26 05:47:01;;;;;;;;;;;3.10;99.90;;;;;;5073479;28;19909;-77
2022/01/26 05:49:27;;;;;;;;;;;3.10;99.90;;;;;;5073939;28;20011;-78
2022/01/26 05:51:52;;;;;;;;;;;3.00;99.90;;;;;;5073548;28;20319;-78
2022/01/26 05:54:18;;;;;;;;;;;3.10;99.90;;;;;;5073339;28;20470;-77
2022/01/26 05:56:47;;;;;;;;;;;3.10;99.90;;;;;;5073280;28;19916;-77
2022/01/26 05:59:17;;;;;;;;;;;3.00;99.90;;;;;;5073276;28;20319;-77
2022/01/26 06:01:43;;;;;;;;;;;3.00;99.90;;;;;;5055243;28;19909;-78
2022/01/26 06:04:08;;;;;;;;;;;2.90;99.90;;;;;;5073362;28;20429;-78
2022/01/26 06:06:34;;;;;;;;;;;2.90;99.90;;;;;;5073063;28;20277;-78
2022/01/26 06:08:59;;;;;;;;;;;3.10;99.90;;;;;;5075331;28;20003;-77
2022/01/26 06:11:25;;;;;;;;;;;3.10;99.90;;;;;;5077139;28;19909;-78
2022/01/26 06:13:50;;;;;;;;;;;3.10;99.90;;;;;;5077048;28;19961;-78
2022/01/26 06:16:16;;;;;;;;;;;3.00;99.90;;;;;;5076933;28;19942;-78
2022/01/26 06:18:43;;;;;;;;;;;3.10;99.90;;;;;;5076940;28;20075;-78
2022/01/26 06:21:09;;;;;;;;;;;3.10;99.90;;;;;;5058690;28;19948;-78
2022/01/26 06:23:35;;;;;;;;;;;3.10;99.90;;;;;;5076889;28;20330;-78
2022/01/26 06:26:00;;;;;;;;;;;3.10;99.90;;;;;;5076753;28;20357;-78
2022/01/26 06:28:27;;;;;;;;;;;3.00;99.90;;;;;;5058681;28;20290;-78
2022/01/26 06:30:59;;;;;;;;;;;3.00;99.90;;;;;;5076560;28;19909;-78
2022/01/26 06:33:25;;;;;;;;;;;3.00;99.90;;;;;;5058626;28;19943;-77
2022/01/26 06:35:51;;;;;;;;;;;3.00;99.90;;;;;;5058507;28;20347;-78
2022/01/26 06:38:16;;;;;;;;;;;2.90;99.90;;;;;;5058474;28;19936;-78
2022/01/26 06:40:42;;;;;;;;;;;2.90;99.90;;;;;;5076549;28;19913;-78
2022/01/26 06:43:12;;;;;;;;;;;2.90;99.90;;;;;;5058471;28;19909;-78
2022/01/26 06:45:46;;;;;;;;;;;2.90;99.90;;;;;;5058383;28;19947;-78
2022/01/26 06:50:44;;;;;;;;;;;2.90;99.90;;;;;;5076019;28;19908;-78
2022/01/26 06:53:09;;;;;;;;;;;2.80;99.90;;;;;;5076325;28;19936;-78
2022/01/26 06:55:36;;;;;;;;;;;2.90;99.90;;;;;;5076088;28;19947;-78
2022/01/26 06:58:01;;;;;;;;;;;3.00;99.90;;;;;;5076266;28;19909;-78
2022/01/26 07:00:27;;;;;;;;;;;3.00;99.90;;;;;;5076063;28;19908;-78
2022/01/26 07:02:54;;;;;;;;;;;2.90;99.90;;;;;;5076031;28;19908;-78
2022/01/26 07:05:20;;;;;;;;;;;2.90;99.90;;;;;;5058047;28;19913;-78
2022/01/26 07:07:46;;;;;;;;;;;2.90;99.90;;;;;;5076048;28;20042;-78
2022/01/26 07:10:12;;;;;;;;;;;2.90;99.90;;;;;;5076116;28;20003;-78
2022/01/26 07:12:37;;;;;;;;;;;2.90;99.90;;;;;;5075857;28;19913;-78
2022/01/26 07:23:16;;;;;;;;;;;3.00;99.90;;;;;;5096178;28;20386;-78
2022/01/26 07:25:42;;;;;;;;;;;3.00;99.90;;;;;;5095904;28;19908;-78
2022/01/26 07:28:07;;;;;;;;;;;3.00;99.90;;;;;;5096079;28;19955;-78
2022/01/26 07:30:35;;;;;;;;;;;3.10;99.90;;;;;;5095778;28;20388;-78
2022/01/26 07:33:01;;;;;;;;;;;3.10;99.90;;;;;;5077561;28;20288;-78
2022/01/26 07:35:26;;;;;;;;;;;3.20;99.90;;;;;;5095650;28;20060;-78
2022/01/26 07:37:57;;;;;;;;;;;3.10;99.90;;;;;;5095660;28;19908;-78
2022/01/26 07:40:22;;;;;;;;;;;3.00;99.90;;;;;;5095597;28;19915;-78
2022/01/26 07:42:48;;;;;;;;;;;3.10;99.90;;;;;;5095676;28;20322;-78
2022/01/26 07:45:13;;;;;;;;;;;3.10;99.90;;;;;;5095522;28;20395;-78
2022/01/26 07:47:39;;;;;;;;;;;3.20;99.90;;;;;;5095878;28;20372;-78
2022/01/26 07:50:07;;;;;;;;;;;3.30;99.90;;;;;;5095552;28;19908;-78
2022/01/26 07:52:37;;;;;;;;;;;3.20;99.90;;;;;;5095287;28;19908;-78
2022/01/26 07:55:04;;;;;;;;;;;3.20;99.90;;;;;;5076996;28;19935;-78
2022/01/26 07:57:30;;;;;;;;;;;3.20;99.90;;;;;;5095287;28;20280;-78
2022/01/26 08:00:00;;;;;;;;;;;3.30;99.90;;;;;;5095550;28;19912;-78
2022/01/26 08:02:25;;;;;;;;;;;3.20;99.90;;;;;;5095186;28;19991;-78
2022/01/26 08:04:51;;;;;;;;;;;3.10;99.90;;;;;;5095074;28;19991;-78
2022/01/26 08:07:16;;;;;;;;;;;3.20;99.90;;;;;;5095064;28;20303;-78
2022/01/26 08:09:44;;;;;;;;;;;3.20;99.90;;;;;;5095403;28;19947;-78
2022/01/26 08:12:10;;;;;;;;;;;3.20;99.90;;;;;;5076781;28;20334;-78
2022/01/26 08:14:36;;;;;;;;;;;3.20;99.90;;;;;;5073119;28;19926;-78
2022/01/26 08:17:03;;;;;;;;;;;3.20;99.90;;;;;;5074689;28;20364;-78
2022/01/26 08:19:29;;;;;;;;;;;3.20;99.90;;;;;;5073216;28;19915;-77
2022/01/26 08:22:00;;;;;;;;;;;3.30;99.90;;;;;;5074579;28;19909;-78
2022/01/26 08:24:26;;;;;;;;;;;3.00;99.90;;;;;;5072895;28;19915;-78
2022/01/26 08:26:52;;;;;;;;;;;3.00;99.90;;;;;;5074470;28;19998;-78
2022/01/26 08:29:40;;;;;;;;;;;3.10;99.90;;;;;;5073141;28;19915;-78
2022/01/26 08:32:05;;;;;;;;;;;3.20;99.90;;;;;;5073640;28;19915;-78
2022/01/26 08:34:31;;;;;;;;;;;3.20;99.90;;;;;;5073079;28;19908;-78
2022/01/26 08:36:57;;;;;;;;;;;3.30;99.90;;;;;;5074312;28;19912;-78
2022/01/26 08:39:22;;;;;;;;;;;3.20;99.90;;;;;;5072892;28;19915;-78
2022/01/26 08:41:48;;;;;;;;;;;3.20;99.90;;;;;;5072842;28;20320;-78
2022/01/26 08:44:13;;;;;;;;;;;3.30;99.90;;;;;;5074315;28;19913;-78
2022/01/26 08:46:39;;;;;;;;;;;3.40;99.90;;;;;;5073997;28;19909;-78
2022/01/26 08:49:05;;;;;;;;;;;3.50;99.90;;;;;;5074126;28;19931;-78
2022/01/26 08:51:31;;;;;;;;;;;3.60;99.90;;;;;;5074021;28;19912;-78
2022/01/26 08:53:56;;;;;;;;;;;3.70;99.90;;;;;;5074029;28;19916;-77
2022/01/26 08:56:22;;;;;;;;;;;3.80;99.90;;;;;;5074313;28;19919;-78
2022/01/26 08:58:47;;;;;;;;;;;3.60;99.90;;;;;;5074035;28;19914;-78
2022/01/26 09:01:13;;;;;;;;;;;3.60;99.90;;;;;;5073950;28;19915;-78
2022/01/26 09:03:39;;;;;;;;;;;3.80;99.90;;;;;;5073857;28;19962;-78
2022/01/26 09:06:08;;;;;;;;;;;3.80;99.90;;;;;;5073818;28;19908;-78
2022/01/26 09:08:34;;;;;;;;;;;3.90;99.90;;;;;;5073959;28;19909;-78
2022/01/26 09:11:02;;;;;;;;;;;3.90;99.90;;;;;;5073841;28;19947;-78
2022/01/26 09:13:33;;;;;;;;;;;3.90;99.90;;;;;;5073514;28;19909;-78
2022/01/26 09:16:00;;;;;;;;;;;4.10;99.90;;;;;;5055335;28;19912;-78
2022/01/26 09:18:39;;;;;;;;;;;4.00;99.90;;;;;;5073650;28;19961;-78
2022/01/26 09:21:05;;;;;;;;;;;4.00;99.90;;;;;;5055311;28;20395;-78
2022/01/26 09:23:31;;;;;;;;;;;3.80;99.90;;;;;;5073800;28;19908;-78
2022/01/26 09:25:57;;;;;;;;;;;3.80;99.90;;;;;;5073698;28;19915;-78
2022/01/26 09:28:26;;;;;;;;;;;3.90;99.90;;;;;;5073744;28;19908;-78
2022/01/26 09:30:52;;;;;;;;;;;4.00;99.90;;;;;;5073546;28;19908;-78
2022/01/26 09:33:17;;;;;;;;;;;4.10;99.90;;;;;;5073601;28;19912;-78
2022/01/26 09:35:44;;;;;;;;;;;4.10;99.90;;;;;;5073427;28;19912;-78
2022/01/26 09:38:10;;;;;;;;;;;4.10;99.90;;;;;;5073740;28;19909;-78
2022/01/26 09:40:36;;;;;;;;;;;3.80;99.90;;;;;;5073420;28;19915;-78
2022/01/26 09:43:02;;;;;;;;;;;4.00;99.90;;;;;;5074157;28;19952;-78
2022/01/26 09:45:29;;;;;;;;;;;4.40;99.90;;;;;;5059435;28;20364;-78
2022/01/26 09:47:54;;;;;;;;;;;4.40;99.90;;;;;;5077469;28;20400;-78
2022/01/26 09:50:20;;;;;;;;;;;4.60;99.90;;;;;;5077456;28;19927;-78
2022/01/26 09:52:48;;;;;;;;;;;4.70;99.90;;;;;;5077422;28;19908;-78
2022/01/26 09:55:15;;;;;;;;;;;4.70;99.90;;;;;;5059246;28;19919;-78
2022/01/26 09:57:43;;;;;;;;;;;4.80;99.90;;;;;;5077633;28;20030;-78
2022/01/26 10:00:09;;;;;;;;;;;4.80;99.90;;;;;;5077241;28;19908;-78
2022/01/26 10:02:35;;;;;;;;;;;4.80;99.90;;;;;;5077391;28;19908;-78
2022/01/26 10:05:03;;;;;;;;;;;4.80;99.90;;;;;;5077192;28;20368;-78
2022/01/26 10:07:48;;;;;;;;;;;4.80;99.90;;;;;;5077149;28;20394;-78
2022/01/26 10:15:40;;;;;;;;;;;5.30;99.90;;;;;;5076518;28;19970;-78
2022/01/26 10:18:17;;;;;;;;;;;5.30;99.90;;;;;;5058719;28;19944;-78
2022/01/26 10:20:43;;;;;;;;;;;5.30;99.90;;;;;;5077452;28;20006;-78
2022/01/26 10:23:12;;;;;;;;;;;5.10;99.90;;;;;;5058752;28;19943;-78
2022/01/26 10:25:39;;;;;;;;;;;5.40;99.90;;;;;;5076902;28;19935;-78
2022/01/26 10:28:04;;;;;;;;;;;5.40;99.90;;;;;;5058743;28;19909;-78
2022/01/26 10:30:32;;;;;;;;;;;5.30;99.90;;;;;;5076605;28;20011;-78
2022/01/26 10:32:58;;;;;;;;;;;5.30;99.90;;;;;;5058631;28;19958;-78
2022/01/26 10:35:24;;;;;;;;;;;5.80;99.90;;;;;;5076800;28;19912;-78
2022/01/26 10:37:53;;;;;;;;;;;5.50;99.90;;;;;;5076661;28;19915;-78
2022/01/26 10:40:22;;;;;;;;;;;5.00;99.90;;;;;;5076440;28;19999;-78
2022/01/26 10:43:10;;;;;;;;;;;5.30;99.90;;;;;;5058413;28;19909;-78
2022/01/26 10:48:21;;;;;;;;;;;5.00;99.90;;;;;;5076614;28;19958;-78
2022/01/26 10:53:38;;;;;;;;;;;5.40;99.90;;;;;;5076492;28;19915;-78
2022/01/26 10:56:04;;;;;;;;;;;5.50;99.90;;;;;;5075194;28;19912;-78
2022/01/26 10:58:30;;;;;;;;;;;5.50;99.90;;;;;;5076162;28;20279;-78
2022/01/26 11:00:57;;;;;;;;;;;5.50;99.90;;;;;;5058110;28;20396;-78
2022/01/26 11:03:22;;;;;;;;;;;5.60;99.90;;;;;;5076052;28;19916;-78
2022/01/26 11:05:48;;;;;;;;;;;5.70;99.90;;;;;;5076013;28;20284;-78
2022/01/26 11:08:14;;;;;;;;;;;6.00;99.90;;;;;;5058011;28;19908;-78
2022/01/26 11:10:40;;;;;;;;;;;6.00;99.90;;;;;;5075941;28;19912;-78
2022/01/26 11:13:22;;;;;;;;;;;5.80;99.90;;;;;;5057845;28;19908;-78
2022/01/26 11:15:48;;;;;;;;;;;5.90;99.90;;;;;;5075938;28;20332;-78
2022/01/26 11:18:21;;;;;;;;;;;6.10;99.90;;;;;;5075729;28;19909;-78
2022/01/26 11:20:51;;;;;;;;;;;6.00;99.90;;;;;;5075683;28;19909;-78
2022/01/26 11:23:18;;;;;;;;;;;6.20;99.90;;;;;;5076067;28;19908;-78
2022/01/26 11:25:44;;;;;;;;;;;6.30;99.90;;;;;;5075644;28;19913;-78
2022/01/26 11:28:22;;;;;;;;;;;6.50;99.90;;;;;;5057600;28;19913;-78
2022/01/26 11:30:48;;;;;;;;;;;6.00;99.90;;;;;;5075528;28;19909;-78
2022/01/26 11:33:19;;;;;;;;;;;6.20;99.90;;;;;;5075481;28;19955;-78
2022/01/26 11:35:47;;;;;;;;;;;6.10;99.90;;;;;;5075767;28;19912;-78
2022/01/26 11:42:12;;;;;;;;;;;6.00;99.90;;;;;;5075454;28;19908;-78
2022/01/26 11:46:50;;;;;;;;;;;6.60;99.90;;;;;;5075430;28;19966;-78
2022/01/26 11:49:21;;;;;;;;;;;6.90;99.90;;;;;;5075740;28;19915;-78
2022/01/26 11:51:48;;;;;;;;;;;7.20;99.90;;;;;;5075412;28;19908;-78
2022/01/26 11:54:13;;;;;;;;;;;7.30;99.90;;;;;;5075322;28;20410;-78
2022/01/26 11:56:39;;;;;;;;;;;7.40;99.90;;;;;;5057064;28;20015;-78
2022/01/26 11:59:15;;;;;;;;;;;7.40;99.90;;;;;;5057090;28;20372;-78
2022/01/26 12:01:42;;;;;;;;;;;7.10;99.90;;;;;;5075248;28;20015;-78
2022/01/26 12:04:11;;;;;;;;;;;7.00;99.90;;;;;;5075107;28;19908;-78
2022/01/26 12:07:04;;;;;;;;;;;6.80;99.90;;;;;;5056679;28;19916;-78
2022/01/26 12:09:29;;;;;;;;;;;6.90;99.90;;;;;;5073410;28;19909;-78
2022/01/26 12:12:09;;;;;;;;;;;7.00;99.90;;;;;;5056915;28;19920;-78
2022/01/26 12:14:34;;;;;;;;;;;7.40;99.90;;;;;;5074525;28;19924;-78
2022/01/26 12:17:04;;;;;;;;;;;7.40;99.90;;;;;;5056629;28;20055;-78
2022/01/26 12:19:49;;;;;;;;;;;7.60;99.90;;;;;;5074691;28;19908;-78
2022/01/26 12:36:27;;;;;;;;;;;8.00;99.90;;;;;;5074340;28;19935;-78
2022/01/26 12:38:57;;;;;;;;;;;8.20;99.90;;;;;;5056059;28;19912;-78
2022/01/26 12:43:55;;;;;;;;;;;8.30;99.90;;;;;;5074167;28;19915;-78
2022/01/26 12:46:22;;;;;;;;;;;8.10;99.90;;;;;;5074440;28;20345;-78
2022/01/26 12:48:55;;;;;;;;;;;8.10;99.90;;;;;;5074151;28;19909;-78
2022/01/26 12:51:21;;;;;;;;;;;7.60;99.90;;;;;;5074271;28;19913;-78
2022/01/26 12:53:57;;;;;;;;;;;8.00;99.90;;;;;;5074020;28;19970;-78
2022/01/26 12:56:26;;;;;;;;;;;7.70;99.90;;;;;;5074159;28;19920;-78
2022/01/26 12:59:04;;;;;;;;;;;8.00;99.90;;;;;;5074012;28;19909;-78
2022/01/26 13:01:30;;;;;;;;;;;8.30;99.90;;;;;;5073949;28;19962;-78
2022/01/26 13:03:58;;;;;;;;;;;8.20;99.90;;;;;;5073957;28;19909;-78
2022/01/26 13:06:24;;;;;;;;;;;8.00;99.90;;;;;;5073921;28;20376;-78
2022/01/26 13:08:53;;;;;;;;;;;8.30;99.90;;;;;;5074011;28;19916;-78
2022/01/26 13:11:22;;;;;;;;;;;8.40;99.90;;;;;;5073874;28;19915;-78
2022/01/26 13:13:47;;;;;;;;;;;8.20;99.90;;;;;;5073596;28;20276;-78
2022/01/26 13:16:17;;;;;;;;;;;8.20;99.90;;;;;;5073847;28;19918;-78
2022/01/26 13:26:40;;;;;;;;;;;7.80;99.90;;;;;;5074018;28;19908;-78
2022/01/26 13:29:25;;;;;;;;;;;8.10;99.90;;;;;;5055448;28;19956;-79
2022/01/26 13:33:02;;;;;;;;;;;9.30;99.90;;;;;;5055376;28;19912;-79
2022/01/26 13:35:01;;;;;;;;;;;11.20;99.90;;;;;;5059341;28;20387;-79
2022/01/26 13:43:49;;;;;;;;;;;11.90;99.60;;;;;;5073107;28;19913;-79
2022/01/26 13:48:31;;;;;;;;;;;11.70;96.40;;;;;;5073292;28;19916;-78
2022/01/26 13:53:24;;;;;;;;;;;13.40;95.90;;;;;;5073654;28;19916;-80
2022/01/26 14:00:59;;;;;;;;;;;15.30;90.20;;;;;;5073784;28;19909;-79
2022/01/26 14:03:28;;;;;;;;;;;17.30;85.70;;;;;;5073368;28;19915;-79
2022/01/26 14:05:55;;;;;;;;;;;18.20;77.20;;;;;;5073273;28;19916;-80
2022/01/26 14:08:21;;;;;;;;;;;18.90;75.60;;;;;;5055194;28;19966;-80
2022/01/26 14:10:48;;;;;;;;;;;19.80;71.70;;;;;;5055315;28;19912;-80
2022/01/26 14:13:19;;;;;;;;;;;20.00;66.80;;;;;;5072993;28;19909;-79
2022/01/26 14:15:47;;;;;;;;;;;20.20;65.40;;;;;;5073429;28;20015;-79
2022/01/26 14:25:41;;;;;;;;;;;21.70;60.00;;;;;;5072820;28;19912;-79
2022/01/26 14:28:09;;;;;;;;;;;21.00;60.10;;;;;;5055078;28;19959;-79
2022/01/26 14:36:19;;;;;;;;;;;20.00;60.00;;;;;;5076769;28;19958;-79
2022/01/26 15:09:05;;;;;;;;;;;17.60;63.00;;;;;;5076290;28;20394;-79
2022/01/26 15:51:16;;;;;;;;;;;14.70;69.20;;;;;;5095267;28;19912;-78
2022/01/26 16:04:47;;;;;;;;;;;12.50;75.80;;;;;;5094964;28;19915;-78
2022/01/26 16:07:20;;;;;;;;;;;12.20;77.00;;;;;;5094567;28;20375;-78
2022/01/26 16:12:54;;;;;;;;;;;11.70;79.30;;;;;;5088021;28;20296;-78
2022/01/26 16:20:51;;;;;;;;;;;10.80;83.30;;;;;;5074450;28;19958;-78
2022/01/26 17:02:10;;;;;;;;;;;7.10;99.90;;;;;;5092408;28;19950;-78
2022/01/26 18:15:24;;;;;;;;;;;4.40;99.90;;;;;;5036440;28;19952;-78
2022/01/26 18:17:59;;;;;;;;;;;4.70;99.90;;;;;;5036813;28;19909;-78
2022/01/26 18:32:06;;;;;;;;;;;5.00;99.90;;;;;;5040645;28;19974;-78
2022/01/26 18:50:58;;;;;;;;;;;5.50;99.90;;;;;;5032260;28;19924;-77
2022/01/26 18:53:24;;;;;;;;;;;5.30;99.90;;;;;;5036569;28;19913;-78
2022/01/26 18:55:49;;;;;;;;;;;5.40;99.90;;;;;;5036071;28;20008;-78
2022/01/26 18:58:15;;;;;;;;;;;5.50;99.90;;;;;;5018010;28;19915;-78
2022/01/26 19:00:44;;;;;;;;;;;5.50;99.90;;;;;;5035159;28;19913;-78
2022/01/26 19:03:10;;;;;;;;;;;5.40;99.90;;;;;;5034013;28;19997;-78
2022/01/26 19:05:35;;;;;;;;;;;5.40;99.90;;;;;;5035764;28;19995;-78
2022/01/26 19:08:01;;;;;;;;;;;5.40;99.90;;;;;;5035932;28;20384;-78
2022/01/26 19:10:27;;;;;;;;;;;5.40;99.90;;;;;;5017894;28;19913;-78
2022/01/26 19:12:54;;;;;;;;;;;5.40;99.90;;;;;;5029202;28;20382;-78
2022/01/26 19:15:23;;;;;;;;;;;5.50;99.90;;;;;;5051803;28;19927;-78
2022/01/26 19:25:32;;;;;;;;;;;4.60;99.90;;;;;;5055770;28;19909;-78
2022/01/26 19:51:43;;;;;;;;;;;5.30;99.90;;;;;;5029906;28;20281;-78
2022/01/26 19:54:09;;;;;;;;;;;5.20;99.90;;;;;;5054869;28;20047;-78
2022/01/26 19:56:35;;;;;;;;;;;5.30;99.90;;;;;;5054822;28;19947;-78
2022/01/26 19:59:00;;;;;;;;;;;5.30;99.90;;;;;;5054568;28;20404;-78
2022/01/26 20:01:26;;;;;;;;;;;5.30;99.90;;;;;;5050907;28;19917;-78
2022/01/26 20:03:52;;;;;;;;;;;5.50;99.90;;;;;;5054666;28;19915;-77
2022/01/26 20:06:18;;;;;;;;;;;5.40;99.90;;;;;;5054625;28;20431;-78
2022/01/26 20:08:58;;;;;;;;;;;5.40;99.90;;;;;;5054633;28;20288;-78
2022/01/26 20:11:35;;;;;;;;;;;5.10;99.90;;;;;;5050766;28;19917;-78
2022/01/26 20:14:02;;;;;;;;;;;5.00;99.90;;;;;;5054261;28;19929;-78
2022/01/26 20:16:27;;;;;;;;;;;5.40;99.90;;;;;;5054471;28;20365;-78
2022/01/26 20:18:53;;;;;;;;;;;5.40;99.90;;;;;;5054312;28;19909;-78
2022/01/26 20:21:19;;;;;;;;;;;5.10;99.90;;;;;;5032052;28;19973;-78
2022/01/26 20:23:45;;;;;;;;;;;5.10;99.90;;;;;;5054381;28;20353;-78
2022/01/26 20:26:11;;;;;;;;;;;5.30;99.90;;;;;;5036252;28;19913;-78
2022/01/26 20:28:39;;;;;;;;;;;5.10;99.90;;;;;;5054159;28;19909;-78
2022/01/26 20:31:06;;;;;;;;;;;5.10;99.90;;;;;;5050275;28;20368;-78
2022/01/26 20:33:32;;;;;;;;;;;5.40;99.90;;;;;;5053443;28;19909;-78
2022/01/26 20:35:58;;;;;;;;;;;5.50;99.90;;;;;;5054010;28;19930;-78
2022/01/26 20:38:25;;;;;;;;;;;5.20;99.90;;;;;;5054026;28;19991;-78
2022/01/26 20:40:50;;;;;;;;;;;5.00;99.90;;;;;;5052562;28;19909;-78
2022/01/26 20:43:16;;;;;;;;;;;5.20;99.90;;;;;;5013715;28;19924;-78
2022/01/26 20:45:44;;;;;;;;;;;5.20;99.90;;;;;;5053846;28;19916;-78
2022/01/26 20:48:09;;;;;;;;;;;5.00;99.90;;;;;;5035918;28;19978;-78
2022/01/26 20:50:35;;;;;;;;;;;5.00;99.90;;;;;;5053908;28;20384;-79
2022/01/26 20:53:01;;;;;;;;;;;5.00;99.90;;;;;;5049108;28;19913;-79
2022/01/26 20:55:27;;;;;;;;;;;4.90;99.90;;;;;;5053659;28;19909;-78
2022/01/26 20:57:53;;;;;;;;;;;4.90;99.90;;;;;;5053619;28;19908;-78
2022/01/26 21:00:19;;;;;;;;;;;4.90;99.90;;;;;;5035754;28;20365;-78
2022/01/26 21:02:49;;;;;;;;;;;5.00;99.90;;;;;;5030912;28;20381;-79
2022/01/26 21:05:20;;;;;;;;;;;5.00;99.90;;;;;;5035547;28;20357;-79
2022/01/26 21:07:45;;;;;;;;;;;5.10;99.90;;;;;;5053590;28;20291;-79
2022/01/26 21:10:12;;;;;;;;;;;5.00;99.90;;;;;;5053223;28;19996;-78
2022/01/26 21:12:38;;;;;;;;;;;5.10;99.90;;;;;;5048855;28;19916;-79
2022/01/26 21:15:04;;;;;;;;;;;5.20;99.90;;;;;;5053103;28;19999;-78
2022/01/26 21:17:30;;;;;;;;;;;5.50;99.90;;;;;;5053319;28;20392;-78
2022/01/26 21:19:55;;;;;;;;;;;5.50;99.90;;;;;;5053278;28;19909;-79
2022/01/26 21:22:21;;;;;;;;;;;5.70;99.90;;;;;;5037908;28;19913;-78
2022/01/26 21:24:46;;;;;;;;;;;5.60;99.90;;;;;;5033415;28;19916;-78
2022/01/26 21:27:12;;;;;;;;;;;5.30;99.90;;;;;;5033209;28;20366;-78
2022/01/26 21:29:38;;;;;;;;;;;5.20;99.90;;;;;;5033039;28;19909;-79
2022/01/26 21:32:04;;;;;;;;;;;5.40;99.90;;;;;;5030176;28;20354;-79
2022/01/26 21:34:29;;;;;;;;;;;5.50;99.90;;;;;;5032962;28;20366;-79
2022/01/26 21:36:55;;;;;;;;;;;5.50;99.90;;;;;;5033216;28;19913;-78
2022/01/26 21:39:21;;;;;;;;;;;5.60;99.90;;;;;;5032673;28;20007;-78
2022/01/26 21:41:48;;;;;;;;;;;5.60;99.90;;;;;;5035868;28;19915;-78